createdAt,value
2022-08-01T00:04:01.369Z,100.00
2022-08-01T00:14:03.687Z,100.00
2022-08-01T00:24:05.335Z,100.00
2022-08-01T00:34:07.064Z,100.00
2022-08-01T00:44:08.762Z,100.00
2022-08-01T00:54:10.634Z,100.00
2022-08-01T01:04:15.056Z,100.00
2022-08-01T01:14:55.041Z,100.00
2022-08-01T01:25:03.796Z,100.00
2022-08-01T01:35:28.051Z,100.00
2022-08-01T01:45:31.581Z,100.00
2022-08-01T01:55:49.017Z,100.00
2022-08-01T02:05:56.623Z,100.00
2022-08-01T02:16:00.449Z,100.00
2022-08-01T02:26:10.905Z,100.00
2022-08-01T02:36:30.375Z,100.00
2022-08-01T02:46:53.827Z,100.00
2022-08-01T02:56:58.590Z,100.00
2022-08-01T03:07:07.492Z,100.00
2022-08-01T03:17:10.879Z,100.00
2022-08-01T03:27:15.501Z,100.00
2022-08-01T03:38:16.431Z,100.00
2022-08-01T03:48:23.790Z,100.00
2022-08-01T03:58:45.154Z,100.00
2022-08-01T04:08:58.260Z,100.00
2022-08-01T04:19:00.024Z,100.00
2022-08-01T04:29:06.238Z,100.00
2022-08-01T04:39:08.350Z,100.00
2022-08-01T04:49:12.955Z,100.00
2022-08-01T04:59:33.065Z,100.00
2022-08-01T05:09:37.583Z,100.00
2022-08-01T05:19:40.525Z,98.06
2022-08-01T05:29:44.844Z,94.10
2022-08-01T05:39:46.784Z,87.66
2022-08-01T05:49:50.498Z,83.48
2022-08-01T05:59:59.993Z,79.87
2022-08-01T06:10:01.863Z,76.05
2022-08-01T06:20:05.612Z,73.39
2022-08-01T06:30:08.767Z,69.55
2022-08-01T06:40:29.939Z,67.02
2022-08-01T06:50:36.862Z,63.61
2022-08-01T07:00:39.863Z,60.60
2022-08-01T07:10:44.010Z,57.05
2022-08-01T07:20:51.116Z,53.96
2022-08-01T07:30:54.715Z,52.57
2022-08-01T07:40:56.453Z,49.12
2022-08-01T07:50:59.143Z,45.07
2022-08-01T08:01:01.213Z,42.41
2022-08-01T08:11:04.023Z,37.27
2022-08-01T08:21:06.928Z,32.97
2022-08-01T08:31:25.406Z,32.67
2022-08-01T08:41:37.551Z,37.63
2022-08-01T08:51:42.476Z,38.84
2022-08-01T09:01:44.547Z,40.08
2022-08-01T09:11:57.665Z,38.87
2022-08-01T09:22:11.336Z,37.12
2022-08-01T09:32:16.256Z,36.90
2022-08-01T09:42:29.495Z,36.82
2022-08-01T09:52:31.406Z,36.27
2022-08-01T10:02:40.193Z,34.19
2022-08-01T10:12:46.004Z,31.75
2022-08-01T10:22:58.887Z,29.63
2022-08-01T10:33:04.314Z,32.48
2022-08-01T10:43:07.913Z,30.80
2022-08-01T10:53:23.417Z,29.35
2022-08-01T11:03:55.484Z,30.96
2022-08-01T11:14:13.794Z,28.88
2022-08-01T11:24:52.159Z,23.38
2022-08-01T11:34:57.394Z,19.62
2022-08-01T11:44:59.034Z,21.32
2022-08-01T11:55:11.648Z,19.82
2022-08-01T12:05:18.222Z,19.55
2022-08-01T12:15:24.173Z,18.40
2022-08-01T12:25:25.911Z,14.60
2022-08-01T12:35:29.375Z,18.26
2022-08-01T12:45:30.973Z,13.99
2022-08-01T12:55:34.154Z,17.36
2022-08-01T13:05:42.544Z,18.00
2022-08-01T13:15:45.712Z,21.06
2022-08-01T13:25:56.653Z,15.72
2022-08-01T13:35:58.482Z,17.07
2022-08-01T13:46:05.015Z,11.99
2022-08-01T13:56:07.462Z,15.70
2022-08-01T14:06:12.446Z,12.31
2022-08-01T14:16:14.353Z,16.64
2022-08-01T14:26:17.229Z,15.33
2022-08-01T14:36:29.534Z,15.11
2022-08-01T14:46:34.659Z,14.21
2022-08-01T14:56:36.538Z,11.75
2022-08-01T15:06:38.369Z,14.93
2022-08-01T15:16:41.161Z,15.13
2022-08-01T15:26:42.856Z,15.86
2022-08-01T15:36:45.767Z,14.80
2022-08-01T15:46:50.726Z,14.76
2022-08-01T15:56:52.672Z,15.24
2022-08-01T16:06:55.446Z,15.14
2022-08-01T16:17:03.291Z,18.39
2022-08-01T16:27:12.587Z,19.88
2022-08-01T16:37:17.866Z,17.88
2022-08-01T16:47:19.661Z,18.13
2022-08-01T16:57:21.280Z,20.28
2022-08-01T17:07:23.148Z,21.21
2022-08-01T17:17:34.625Z,22.14
2022-08-01T17:27:54.410Z,28.38
2022-08-01T17:38:04.342Z,32.53
2022-08-01T17:58:49.677Z,39.13
2022-08-01T18:08:59.422Z,41.93
2022-08-01T18:19:01.569Z,44.01
2022-08-01T18:29:08.203Z,45.20
2022-08-01T18:39:10.954Z,46.71
2022-08-01T18:49:13.114Z,47.96
2022-08-01T18:59:18.016Z,48.98
2022-08-01T19:09:23.159Z,50.58
2022-08-01T19:19:27.812Z,52.23
2022-08-01T19:29:36.480Z,54.01
2022-08-01T19:39:46.709Z,57.61
2022-08-01T19:49:48.551Z,58.67
2022-08-01T19:59:54.681Z,61.46
2022-08-01T20:09:57.016Z,62.81
2022-08-01T20:20:00.248Z,60.65
2022-08-01T20:30:07.065Z,62.98
2022-08-01T20:40:12.346Z,65.15
2022-08-01T20:50:53.720Z,65.67
2022-08-01T21:00:59.674Z,69.33
2022-08-01T21:11:03.598Z,71.25
2022-08-01T21:21:10.575Z,73.72
2022-08-01T21:31:21.441Z,79.28
2022-08-01T21:42:03.274Z,81.86
2022-08-01T21:52:00.218Z,85.87
2022-08-01T22:02:09.479Z,87.58
2022-08-01T22:12:18.247Z,88.77
2022-08-01T22:22:45.228Z,89.83
2022-08-01T22:33:07.982Z,88.75
2022-08-01T22:43:24.072Z,92.66
2022-08-01T22:53:28.712Z,95.77
2022-08-01T23:03:35.118Z,98.62
2022-08-01T23:13:39.179Z,98.18
2022-08-01T23:23:42.852Z,99.34
2022-08-01T23:33:51.581Z,100.00
2022-08-01T23:43:55.290Z,100.00
2022-08-01T23:53:58.016Z,100.00
